createdAt,value
2022-10-11T00:00:06.357Z,6.97
2022-10-11T00:02:41.942Z,7.80
2022-10-11T00:05:11.048Z,7.80
2022-10-11T00:07:39.787Z,7.85
2022-10-11T00:10:18.695Z,6.70
2022-10-11T00:12:59.153Z,7.32
2022-10-11T00:15:45.402Z,7.38
2022-10-11T00:20:52.330Z,7.63
2022-10-11T00:23:21.060Z,6.82
2022-10-11T00:25:59.593Z,7.57
2022-10-11T00:28:28.053Z,7.78
2022-10-11T00:31:08.728Z,6.60
2022-10-11T00:33:58.042Z,6.57
2022-10-11T00:36:26.575Z,5.85
2022-10-11T00:39:00.522Z,7.20
2022-10-11T00:41:36.399Z,7.68
2022-10-11T00:47:03.523Z,6.97
2022-10-11T00:49:41.500Z,7.90
2022-10-11T00:52:26.042Z,7.70
2022-10-11T00:55:03.892Z,7.63
2022-10-11T00:57:43.477Z,7.13
2022-10-11T01:00:19.392Z,7.63
2022-10-11T01:05:31.104Z,7.80
2022-10-11T01:08:02.019Z,7.70
2022-10-11T01:10:33.363Z,8.45
2022-10-11T01:13:16.334Z,8.05
2022-10-11T01:15:59.727Z,7.65
2022-10-11T01:18:38.304Z,6.72
2022-10-11T01:21:15.025Z,7.38
2022-10-11T01:24:08.747Z,7.25
2022-10-11T01:27:12.168Z,8.00
2022-10-11T01:29:57.742Z,7.90
2022-10-11T01:32:37.574Z,7.65
2022-10-11T01:35:12.163Z,8.10
2022-10-11T01:37:48.356Z,8.63
2022-10-11T01:40:30.800Z,7.97
2022-10-11T01:43:18.032Z,8.73
2022-10-11T01:45:54.586Z,7.63
2022-10-11T01:48:28.687Z,8.02
2022-10-11T01:50:59.021Z,8.63
2022-10-11T01:54:00.845Z,7.80
2022-10-11T01:56:58.461Z,8.77
2022-10-11T01:59:41.956Z,8.60
2022-10-11T02:02:28.662Z,10.38
2022-10-11T02:05:07.819Z,7.32
2022-10-11T02:07:48.285Z,8.25
2022-10-11T02:10:26.203Z,7.80
2022-10-11T02:13:05.122Z,7.68
2022-10-11T02:18:24.787Z,7.85
2022-10-11T02:21:01.080Z,9.32
2022-10-11T02:23:45.254Z,7.75
2022-10-11T02:26:20.530Z,8.10
2022-10-11T02:28:49.037Z,8.52
2022-10-11T02:31:17.843Z,7.75
2022-10-11T02:34:00.014Z,8.43
2022-10-11T02:36:39.051Z,8.35
2022-10-11T02:39:17.702Z,9.32
2022-10-11T02:41:54.636Z,9.05
2022-10-11T02:44:32.574Z,7.95
2022-10-11T02:47:20.984Z,9.82
2022-10-11T02:49:52.877Z,9.23
2022-10-11T02:52:34.166Z,8.32
2022-10-11T02:55:10.807Z,10.60
2022-10-11T02:57:39.238Z,8.75
2022-10-11T03:00:09.372Z,10.35
2022-10-11T03:02:40.261Z,9.48
2022-10-11T03:05:09.613Z,8.25
2022-10-11T03:07:41.272Z,9.55
2022-10-11T03:10:13.226Z,9.68
2022-10-11T03:12:55.754Z,8.90
2022-10-11T03:15:29.180Z,9.75
2022-10-11T03:18:11.615Z,9.95
2022-10-11T03:20:53.462Z,10.05
2022-10-11T03:23:34.597Z,9.80
2022-10-11T03:26:17.286Z,9.20
2022-10-11T03:28:54.143Z,10.68
2022-10-11T03:31:36.190Z,10.18
2022-10-11T03:34:17.984Z,10.60
2022-10-11T03:36:55.757Z,9.75
2022-10-11T03:39:38.954Z,11.23
2022-10-11T03:42:19.587Z,10.77
2022-10-11T03:44:57.397Z,10.40
2022-10-11T03:47:32.669Z,10.95
2022-10-11T03:50:03.107Z,12.10
2022-10-11T03:52:32.090Z,11.93
2022-10-11T03:55:06.286Z,12.98
2022-10-11T03:57:52.398Z,13.05
2022-10-11T04:00:26.356Z,14.32
2022-10-11T04:03:04.919Z,13.95
2022-10-11T04:05:43.719Z,12.23
2022-10-11T04:08:19.847Z,13.85
2022-10-11T04:10:50.103Z,13.63
2022-10-11T04:13:18.326Z,13.25
2022-10-11T04:15:52.321Z,12.38
2022-10-11T04:18:24.016Z,13.45
2022-10-11T04:20:52.265Z,13.48
2022-10-11T04:23:21.131Z,13.13
2022-10-11T04:25:56.916Z,13.80
2022-10-11T04:28:25.223Z,12.40
2022-10-11T04:30:56.301Z,12.85
2022-10-11T04:33:30.415Z,14.35
2022-10-11T04:36:09.701Z,15.57
2022-10-11T04:38:38.788Z,13.82
2022-10-11T04:41:11.166Z,14.23
2022-10-11T04:43:44.510Z,15.00
2022-10-11T04:46:27.191Z,14.10
2022-10-11T04:49:07.341Z,14.65
2022-10-11T04:51:39.541Z,14.57
2022-10-11T04:54:22.239Z,13.65
2022-10-11T04:57:11.912Z,14.88
2022-10-11T04:59:50.431Z,14.75
2022-10-11T05:02:25.362Z,14.73
2022-10-11T05:05:04.417Z,14.30
2022-10-11T05:07:48.550Z,15.18
2022-10-11T05:10:31.272Z,15.32
2022-10-11T05:13:38.774Z,14.52
2022-10-11T05:16:59.095Z,14.82
2022-10-11T05:19:34.984Z,15.27
2022-10-11T05:25:00.720Z,15.77
2022-10-11T05:27:34.785Z,16.48
2022-10-11T05:30:06.929Z,16.67
2022-10-11T05:32:35.337Z,16.00
2022-10-11T05:35:05.609Z,16.55
2022-10-11T05:37:37.913Z,17.33
2022-10-11T05:40:13.529Z,18.08
2022-10-11T05:42:44.994Z,14.75
2022-10-11T05:45:13.349Z,18.08
2022-10-11T05:47:43.576Z,16.38
2022-10-11T05:50:18.719Z,14.23
2022-10-11T05:52:49.611Z,12.45
2022-10-11T05:55:18.366Z,12.27
2022-10-11T05:57:57.280Z,11.82
2022-10-11T06:00:33.492Z,10.95
2022-10-11T06:03:05.501Z,10.20
2022-10-11T06:05:35.953Z,11.30
2022-10-11T06:08:06.578Z,8.43
2022-10-11T06:10:41.255Z,8.10
2022-10-11T06:13:15.442Z,7.10
2022-10-11T06:15:47.208Z,7.28
2022-10-11T06:18:24.936Z,7.07
2022-10-11T06:20:56.116Z,6.80
2022-10-11T06:23:30.193Z,6.28
2022-10-11T06:26:02.734Z,6.40
2022-10-11T06:28:38.020Z,6.32
2022-10-11T06:31:11.892Z,6.07
2022-10-11T06:33:42.874Z,6.10
2022-10-11T06:36:21.732Z,5.55
2022-10-11T06:38:55.329Z,5.55
2022-10-11T06:41:27.246Z,5.18
2022-10-11T06:43:56.148Z,4.97
2022-10-11T06:46:28.640Z,4.57
2022-10-11T06:48:58.068Z,4.65
2022-10-11T06:51:30.372Z,4.95
2022-10-11T06:54:05.840Z,4.95
2022-10-11T06:56:34.758Z,5.68
2022-10-11T06:59:06.371Z,4.68
2022-10-11T07:01:38.166Z,5.40
2022-10-11T07:04:10.185Z,4.70
2022-10-11T07:06:43.661Z,4.65
2022-10-11T07:09:12.388Z,4.22
2022-10-11T07:11:43.099Z,4.40
2022-10-11T07:14:13.138Z,4.18
2022-10-11T07:16:43.645Z,4.03
2022-10-11T07:19:14.383Z,3.83
2022-10-11T07:21:44.845Z,4.70
2022-10-11T07:24:13.512Z,3.78
2022-10-11T07:26:42.681Z,4.38
2022-10-11T07:29:11.818Z,3.75
2022-10-11T07:31:41.417Z,4.10
2022-10-11T07:34:10.350Z,3.80
2022-10-11T07:36:41.838Z,3.95
2022-10-11T07:39:12.367Z,3.40
2022-10-11T07:41:45.872Z,3.85
2022-10-11T07:44:25.408Z,4.50
2022-10-11T07:46:54.330Z,3.45
2022-10-11T07:49:23.602Z,3.90
2022-10-11T07:51:52.779Z,3.60
2022-10-11T07:54:26.515Z,4.10
2022-10-11T07:56:55.287Z,4.07
2022-10-11T07:59:24.195Z,3.40
2022-10-11T08:01:52.662Z,3.60
2022-10-11T08:04:27.362Z,3.70
2022-10-11T08:06:58.753Z,4.50
2022-10-11T08:09:34.096Z,4.45
2022-10-11T08:12:13.117Z,3.50
2022-10-11T08:14:47.611Z,3.25
2022-10-11T08:17:18.392Z,3.50
2022-10-11T08:19:47.491Z,3.03
2022-10-11T08:22:16.123Z,3.60
2022-10-11T08:24:46.702Z,3.90
2022-10-11T08:27:16.233Z,3.78
2022-10-11T08:29:47.417Z,4.63
2022-10-11T08:32:16.248Z,3.83
2022-10-11T08:34:53.202Z,3.70
2022-10-11T08:37:21.879Z,4.10
2022-10-11T08:39:56.099Z,3.53
2022-10-11T08:42:30.758Z,3.70
2022-10-11T08:45:12.418Z,3.88
2022-10-11T08:47:44.744Z,3.75
2022-10-11T08:50:18.363Z,3.80
2022-10-11T08:53:04.320Z,4.40
2022-10-11T08:55:40.585Z,4.35
2022-10-11T08:58:10.282Z,4.70
2022-10-11T09:00:49.143Z,4.20
2022-10-11T09:03:24.921Z,5.20
2022-10-11T09:06:04.978Z,5.07
2022-10-11T09:08:42.141Z,4.82
2022-10-11T09:11:29.044Z,4.50
2022-10-11T09:14:14.120Z,3.72
2022-10-11T09:16:55.340Z,4.20
2022-10-11T09:19:51.402Z,4.78
2022-10-11T09:22:26.814Z,4.28
2022-10-11T09:25:13.272Z,4.50
2022-10-11T09:28:03.258Z,4.35
2022-10-11T09:30:36.403Z,4.07
2022-10-11T09:33:12.122Z,4.45
2022-10-11T09:35:44.722Z,5.45
2022-10-11T09:38:18.647Z,5.05
2022-10-11T09:40:52.684Z,4.45
2022-10-11T09:43:26.973Z,4.53
2022-10-11T09:45:55.463Z,4.38
2022-10-11T09:48:28.402Z,4.75
2022-10-11T09:50:59.241Z,4.75
2022-10-11T09:53:57.954Z,4.90
2022-10-11T09:56:27.521Z,5.22
2022-10-11T09:59:25.736Z,4.97
2022-10-11T10:02:29.267Z,4.57
2022-10-11T10:05:02.779Z,5.85
2022-10-11T10:07:32.669Z,4.38
2022-10-11T10:10:02.362Z,5.97
2022-10-11T10:12:33.897Z,5.20
2022-10-11T10:15:09.961Z,4.63
2022-10-11T10:17:42.159Z,5.20
2022-10-11T10:20:30.944Z,7.07
2022-10-11T10:23:03.226Z,5.47
2022-10-11T10:25:44.397Z,5.05
2022-10-11T10:28:24.558Z,4.38
2022-10-11T10:31:03.343Z,4.60
2022-10-11T10:33:43.261Z,4.35
2022-10-11T10:36:20.774Z,4.85
2022-10-11T10:38:52.432Z,4.00
2022-10-11T10:41:24.440Z,4.80
2022-10-11T10:43:55.256Z,4.18
2022-10-11T10:46:46.189Z,4.72
2022-10-11T10:49:41.550Z,4.85
2022-10-11T10:52:33.005Z,3.83
2022-10-11T10:55:03.940Z,4.40
2022-10-11T10:57:35.748Z,4.20
2022-10-11T11:00:10.585Z,4.85
2022-10-11T11:02:44.926Z,4.75
2022-10-11T11:05:28.186Z,5.28
2022-10-11T11:07:58.794Z,4.45
2022-10-11T11:10:33.557Z,4.93
2022-10-11T11:13:13.912Z,5.65
2022-10-11T11:15:58.319Z,5.55
2022-10-11T11:18:33.773Z,5.00
2022-10-11T11:21:14.370Z,5.25
2022-10-11T11:23:45.712Z,5.22
2022-10-11T11:26:19.440Z,5.30
2022-10-11T11:29:03.703Z,5.28
2022-10-11T11:31:46.702Z,6.53
2022-10-11T11:34:21.248Z,5.03
2022-10-11T11:36:53.999Z,4.63
2022-10-11T11:39:24.351Z,5.10
2022-10-11T11:41:54.862Z,4.82
2022-10-11T11:44:27.448Z,4.50
2022-10-11T11:46:58.819Z,4.82
2022-10-11T11:49:32.486Z,4.88
2022-10-11T11:52:01.617Z,4.22
2022-10-11T11:54:38.054Z,4.57
2022-10-11T11:57:17.488Z,4.57
2022-10-11T11:59:47.638Z,4.38
2022-10-11T12:02:38.004Z,3.95
2022-10-11T12:05:12.845Z,4.55
2022-10-11T12:07:56.628Z,4.80
2022-10-11T12:10:33.402Z,4.70
2022-10-11T12:13:20.879Z,3.97
2022-10-11T12:16:10.059Z,4.72
2022-10-11T12:18:49.455Z,4.32
2022-10-11T12:21:31.736Z,3.42
2022-10-11T12:24:02.115Z,4.22
2022-10-11T12:26:47.825Z,4.20
2022-10-11T12:29:44.522Z,11.48
2022-10-11T12:32:51.195Z,6.80
2022-10-11T12:36:05.692Z,4.82
2022-10-11T12:38:42.193Z,4.88
2022-10-11T12:41:49.165Z,4.63
2022-10-11T12:44:26.694Z,4.82
2022-10-11T12:47:19.722Z,3.90
2022-10-11T12:52:45.046Z,3.80
2022-10-11T12:55:35.333Z,3.70
2022-10-11T12:58:29.717Z,4.35
2022-10-11T13:01:23.292Z,3.60
2022-10-11T13:04:00.363Z,4.05
2022-10-11T13:06:34.348Z,3.65
2022-10-11T13:09:08.668Z,3.63
2022-10-11T13:11:45.220Z,4.43
2022-10-11T13:14:43.813Z,4.90
2022-10-11T13:17:33.295Z,4.20
2022-10-11T13:20:28.456Z,4.75
2022-10-11T13:23:04.935Z,3.88
2022-10-11T13:25:45.120Z,3.80
2022-10-11T13:28:17.702Z,3.20
2022-10-11T13:30:49.066Z,4.10
2022-10-11T13:33:23.838Z,3.22
2022-10-11T13:35:56.282Z,3.65
2022-10-11T13:38:42.908Z,3.42
2022-10-11T13:41:11.910Z,3.28
2022-10-11T13:43:44.033Z,4.85
2022-10-11T13:46:13.572Z,4.68
2022-10-11T13:48:48.126Z,4.43
2022-10-11T13:51:21.066Z,4.60
2022-10-11T13:54:00.236Z,4.20
2022-10-11T13:56:30.835Z,3.83
2022-10-11T13:59:03.371Z,3.42
2022-10-11T14:01:41.115Z,4.07
2022-10-11T14:04:16.117Z,3.50
2022-10-11T14:06:45.891Z,3.13
2022-10-11T14:09:25.035Z,2.88
2022-10-11T14:12:30.106Z,3.40
2022-10-11T14:15:03.256Z,3.17
2022-10-11T14:17:48.227Z,2.97
2022-10-11T14:20:44.086Z,3.40
2022-10-11T14:23:13.644Z,4.40
2022-10-11T14:25:45.251Z,3.80
2022-10-11T14:28:19.465Z,2.72
2022-10-11T14:30:54.471Z,3.50
2022-10-11T14:33:22.885Z,3.08
2022-10-11T14:35:54.838Z,3.05
2022-10-11T14:38:29.123Z,3.08
2022-10-11T14:41:00.646Z,2.92
2022-10-11T14:43:31.312Z,2.80
2022-10-11T14:46:09.288Z,3.22
2022-10-11T14:48:54.888Z,2.72
2022-10-11T14:51:42.047Z,2.88
2022-10-11T14:57:02.489Z,3.58
2022-10-11T14:59:36.652Z,3.60
2022-10-11T15:02:25.052Z,3.97
2022-10-11T15:05:00.011Z,5.00
2022-10-11T15:07:37.894Z,4.20
2022-10-11T15:10:17.988Z,3.83
2022-10-11T15:12:49.642Z,4.80
2022-10-11T15:15:21.203Z,5.55
2022-10-11T15:17:53.788Z,4.95
2022-10-11T15:20:25.145Z,4.65
2022-10-11T15:22:53.825Z,5.13
2022-10-11T15:25:38.101Z,4.80
2022-10-11T15:28:08.572Z,4.70
2022-10-11T15:30:41.484Z,4.40
2022-10-11T15:33:14.612Z,4.25
2022-10-11T15:35:46.665Z,4.82
2022-10-11T15:38:20.254Z,4.28
2022-10-11T15:40:54.511Z,4.72
2022-10-11T15:43:24.979Z,4.50
2022-10-11T15:45:53.835Z,4.60
2022-10-11T15:48:26.717Z,4.53
2022-10-11T15:51:03.553Z,5.75
2022-10-11T15:53:32.343Z,5.05
2022-10-11T15:56:02.982Z,6.20
2022-10-11T15:58:32.564Z,3.85
2022-10-11T16:01:02.105Z,5.32
2022-10-11T16:03:54.862Z,5.00
2022-10-11T16:06:23.571Z,4.90
2022-10-11T16:09:38.918Z,5.55
2022-10-11T16:12:25.538Z,5.05
2022-10-11T16:14:58.668Z,5.32
2022-10-11T16:17:27.699Z,5.00
2022-10-11T16:20:10.036Z,4.18
2022-10-11T16:22:44.814Z,4.47
2022-10-11T16:25:23.785Z,4.80
2022-10-11T16:28:14.616Z,4.95
2022-10-11T16:30:46.208Z,5.63
2022-10-11T16:33:55.521Z,5.75
2022-10-11T16:37:03.607Z,4.90
2022-10-11T16:39:55.286Z,4.90
2022-10-11T16:42:29.970Z,4.13
2022-10-11T16:45:15.231Z,5.05
2022-10-11T16:47:52.474Z,5.07
2022-10-11T16:50:39.498Z,4.82
2022-10-11T16:53:15.931Z,4.47
2022-10-11T16:55:57.281Z,7.13
2022-10-11T16:58:40.220Z,13.95
2022-10-11T17:01:14.006Z,10.23
2022-10-11T17:04:01.958Z,7.65
2022-10-11T17:06:50.173Z,6.40
2022-10-11T17:09:32.894Z,9.23
2022-10-11T17:15:41.241Z,6.50
2022-10-11T17:18:21.329Z,6.13
2022-10-11T17:21:01.431Z,6.20
2022-10-11T17:23:35.976Z,16.10
2022-10-11T17:26:46.756Z,6.60
2022-10-11T17:29:55.021Z,6.40
2022-10-11T17:32:47.480Z,6.60
2022-10-11T17:35:38.186Z,6.63
2022-10-11T17:38:33.236Z,6.18
2022-10-11T17:41:16.845Z,6.32
2022-10-11T17:43:57.198Z,5.95
2022-10-11T17:46:43.373Z,6.85
2022-10-11T17:49:22.509Z,6.55
2022-10-11T17:52:02.394Z,5.80
2022-10-11T17:54:42.726Z,5.55
2022-10-11T17:57:17.976Z,7.15
2022-10-11T17:59:55.965Z,6.40
2022-10-11T18:02:43.482Z,6.93
2022-10-11T18:05:17.955Z,7.28
2022-10-11T18:08:11.663Z,10.05
2022-10-11T18:14:23.376Z,9.65
2022-10-11T18:17:03.247Z,19.83
2022-10-11T18:19:42.678Z,14.88
2022-10-11T18:22:28.573Z,11.88
2022-10-11T18:25:03.447Z,10.52
2022-10-11T18:27:44.150Z,8.65
2022-10-11T18:30:28.688Z,9.57
2022-10-11T18:33:37.621Z,9.38
2022-10-11T18:36:32.405Z,8.82
2022-10-11T18:39:27.473Z,7.78
2022-10-11T18:42:06.997Z,8.63
2022-10-11T18:44:45.056Z,8.85
2022-10-11T18:47:20.517Z,8.07
2022-10-11T18:50:13.729Z,7.03
2022-10-11T18:52:51.205Z,7.38
2022-10-11T18:55:25.927Z,8.02
2022-10-11T18:58:04.768Z,7.13
2022-10-11T19:00:51.622Z,7.72
2022-10-11T19:03:32.734Z,7.18
2022-10-11T19:06:17.572Z,7.50
2022-10-11T19:08:59.184Z,7.15
2022-10-11T19:11:34.064Z,7.68
2022-10-11T19:14:09.503Z,7.60
2022-10-11T19:16:56.772Z,7.60
2022-10-11T19:19:40.695Z,7.60
2022-10-11T19:22:15.413Z,8.55
2022-10-11T19:24:50.360Z,9.35
2022-10-11T19:27:36.358Z,8.97
2022-10-11T19:30:39.385Z,7.90
2022-10-11T19:33:24.888Z,9.30
2022-10-11T19:36:14.574Z,7.78
2022-10-11T19:39:19.476Z,7.57
2022-10-11T19:41:56.900Z,7.88
2022-10-11T19:44:35.828Z,11.98
2022-10-11T19:47:16.211Z,7.80
2022-10-11T19:49:59.982Z,7.00
2022-10-11T19:52:41.524Z,6.47
2022-10-11T19:55:46.832Z,6.10
2022-10-11T19:58:25.088Z,5.20
2022-10-11T20:01:10.364Z,6.10
2022-10-11T20:03:54.256Z,5.05
2022-10-11T20:06:38.055Z,4.82
2022-10-11T20:09:29.075Z,4.60
2022-10-11T20:12:20.929Z,4.53
2022-10-11T20:15:03.809Z,4.45
2022-10-11T20:18:11.099Z,4.28
